Time;durP1;ratioP1;P1;durP2;ratioP2;P2;SDS_P1;SDS_P2;PMS_P1;PMS_P2;Temp;Humidity;BMP_temperature;BMP_pressure;BME280_temperature;BME280_humidity;BME280_pressure;Samples;Min_cycle;Max_cycle;Signal;HPM_P1;HPM_P2
2022/11/24 00:01:18;;;;;;;4.17;3.27;;;;;;;-4.76;96.51;101886.28;5073464;28;20032;-75
2022/11/24 00:03:45;;;;;;;4.55;4.15;;;;;;;-4.64;96.01;101890.31;5074430;28;20403;-75
2022/11/24 00:06:13;;;;;;;3.13;2.88;;;;;;;-4.58;95.71;101900.56;5074601;28;20035;-74
2022/11/24 00:08:40;;;;;;;3.10;2.80;;;;;;;-4.60;95.60;101898.00;5074659;28;20032;-74
2022/11/24 00:11:11;;;;;;;3.95;3.47;;;;;;;-4.92;95.31;101849.41;5077654;28;20078;-74
2022/11/24 00:13:38;;;;;;;4.07;3.60;;;;;;;-4.58;95.43;101906.63;5096379;28;20037;-71
2022/11/24 00:16:15;;;;;;;3.53;3.22;;;;;;;-4.54;94.90;101897.00;5075798;28;20020;-74
2022/11/24 00:18:42;;;;;;;3.80;2.95;;;;;;;-4.54;94.87;101903.06;5059059;28;20467;-74
2022/11/24 00:21:07;;;;;;;3.60;3.30;;;;;;;-4.73;94.66;101892.25;5074139;28;20382;-74
2022/11/24 00:23:34;;;;;;;3.67;3.20;;;;;;;-4.76;94.99;101897.53;5073977;28;20045;-73
2022/11/24 00:26:20;;;;;;;4.75;4.05;;;;;;;-4.64;94.37;101901.56;5073812;28;20035;-74
2022/11/24 00:28:48;;;;;;;8.75;5.35;;;;;;;-4.67;95.07;101902.50;5074146;28;20032;-74
2022/11/24 00:31:16;;;;;;;3.80;3.20;;;;;;;-4.54;94.65;101910.00;5073792;28;20371;-75
2022/11/24 00:33:41;;;;;;;4.60;3.35;;;;;;;-4.55;94.94;101905.69;5073907;28;20122;-73
2022/11/24 00:36:07;;;;;;;4.13;3.30;;;;;;;-4.47;94.40;101914.13;5073666;28;20023;-74
2022/11/24 00:38:32;;;;;;;4.57;3.77;;;;;;;-4.48;93.46;101912.44;5074301;28;20467;-74
2022/11/24 00:40:58;;;;;;;4.70;3.93;;;;;;;-4.46;93.66;101905.44;5073985;28;20476;-74
2022/11/24 00:43:23;;;;;;;3.50;3.20;;;;;;;-4.52;93.44;101903.88;5074264;28;20036;-74
2022/11/24 00:45:49;;;;;;;4.53;3.37;;;;;;;-4.53;93.55;101914.31;5073938;28;20066;-74
2022/11/24 00:48:14;;;;;;;3.93;3.00;;;;;;;-4.55;93.15;101911.75;5073855;28;20032;-75
2022/11/24 00:50:40;;;;;;;3.63;3.33;;;;;;;-4.60;93.16;101905.81;5073858;28;20044;-74
2022/11/24 00:53:06;;;;;;;4.43;3.53;;;;;;;-4.67;93.11;101907.69;5073693;28;20024;-74
2022/11/24 00:55:31;;;;;;;3.40;3.10;;;;;;;-4.76;93.73;101913.13;5074124;28;20064;-73
2022/11/24 00:57:57;;;;;;;5.40;3.53;;;;;;;-4.63;94.10;101918.00;5073673;28;20082;-74
2022/11/24 01:00:22;;;;;;;4.57;3.10;;;;;;;-4.63;93.36;101902.41;5073771;28;20026;-74
2022/11/24 01:02:48;;;;;;;3.77;3.47;;;;;;;-4.57;93.64;101913.53;5055589;28;20025;-75
2022/11/24 01:05:39;;;;;;;4.50;3.78;;;;;;;-4.52;93.26;101913.41;5073910;28;20058;-74
2022/11/24 01:08:05;;;;;;;5.40;3.65;;;;;;;-4.51;93.34;101894.31;5073572;28;20040;-74
2022/11/24 01:10:32;;;;;;;3.60;3.28;;;;;;;-4.31;93.69;101910.28;5073684;28;20613;-74
2022/11/24 01:12:58;;;;;;;6.00;3.50;;;;;;;-4.32;92.76;101912.91;5073283;28;20052;-74
2022/11/24 01:15:23;;;;;;;4.73;4.20;;;;;;;-4.32;92.25;101916.38;5055444;28;20119;-74
2022/11/24 01:17:48;;;;;;;4.40;3.80;;;;;;;-4.38;92.50;101906.09;5073298;28;20074;-73
2022/11/24 01:20:14;;;;;;;3.93;3.57;;;;;;;-4.42;92.70;101907.06;5073437;28;20031;-75
2022/11/24 01:22:41;;;;;;;6.40;3.43;;;;;;;-4.40;92.77;101900.09;5073498;28;20033;-75
2022/11/24 01:25:10;;;;;;;5.10;3.85;;;;;;;-4.25;92.92;101920.50;5072950;28;20453;-73
2022/11/24 01:27:37;;;;;;;3.92;3.35;;;;;;;-4.22;92.96;101912.63;5072783;28;20387;-73
2022/11/24 01:30:04;;;;;;;4.93;4.07;;;;;;;-4.27;92.65;101911.03;5073017;28;20089;-74
2022/11/24 01:32:32;;;;;;;6.95;4.28;;;;;;;-4.45;92.27;101909.75;5072822;28;20044;-74
2022/11/24 01:34:58;;;;;;;4.85;4.13;;;;;;;-4.54;92.96;101910.00;5073047;28;20024;-73
2022/11/24 01:37:24;;;;;;;5.72;4.38;;;;;;;-4.42;93.22;101922.69;5055077;28;20032;-74
2022/11/24 01:39:50;;;;;;;5.50;3.50;;;;;;;-4.39;93.07;101917.38;5054665;28;20020;-73
2022/11/24 01:42:15;;;;;;;5.10;3.70;;;;;;;-4.42;93.08;101904.47;5072732;28;20024;-73
2022/11/24 01:44:41;;;;;;;5.83;4.17;;;;;;;-4.35;92.81;101908.63;5073014;28;20055;-73
2022/11/24 01:47:25;;;;;;;5.20;4.40;;;;;;;-4.31;92.26;101905.06;5072811;28;20029;-73
2022/11/24 01:49:57;;;;;;;4.95;3.67;;;;;;;-4.39;92.52;101888.78;5051954;28;20381;-73
2022/11/24 01:52:33;;;;;;;6.95;4.00;;;;;;;-4.27;91.95;101898.88;5054856;28;20037;-73
2022/11/24 01:55:04;;;;;;;5.38;4.50;;;;;;;-4.29;92.72;101892.03;5054267;28;20032;-73
2022/11/24 01:57:35;;;;;;;6.57;4.07;;;;;;;-4.28;92.13;101894.59;5056140;28;20024;-73
2022/11/24 02:00:09;;;;;;;5.47;4.03;;;;;;;-4.21;92.88;101896.13;5053392;28;20385;-73
2022/11/24 02:02:35;;;;;;;7.97;3.47;;;;;;;-4.14;92.19;101892.44;5053952;28;20079;-73
2022/11/24 02:05:09;;;;;;;4.43;3.53;;;;;;;-4.06;92.36;101905.25;5053359;28;20473;-72
2022/11/24 02:07:38;;;;;;;5.32;3.75;;;;;;;-4.14;91.64;101912.41;5052618;28;20542;-72
2022/11/24 02:10:13;;;;;;;8.10;4.57;;;;;;;-4.30;92.07;101900.72;5052377;28;20067;-72
2022/11/24 02:12:42;;;;;;;4.38;3.47;;;;;;;-4.29;92.51;101913.69;5053021;28;20025;-74
2022/11/24 02:15:28;;;;;;;;;;;;;;;-4.26;92.33;101913.59;5052292;28;20040;-74
2022/11/24 02:17:53;;;;;;;6.77;4.23;;;;;;;-4.31;92.35;101905.06;5052321;28;19908;-74
2022/11/24 02:20:19;;;;;;;6.87;4.60;;;;;;;-4.21;92.30;101916.06;5052183;28;20449;-74
2022/11/24 02:23:05;;;;;;;4.10;3.67;;;;;;;-4.26;91.81;101913.59;5051989;28;20037;-74
2022/11/24 02:25:46;;;;;;;6.15;4.10;;;;;;;-4.41;92.65;101924.38;5051442;28;20392;-73
2022/11/24 02:28:15;;;;;;;4.32;3.72;;;;;;;-4.47;93.24;101914.13;5051925;28;20039;-73
2022/11/24 02:30:41;;;;;;;5.18;3.88;;;;;;;-4.39;92.82;101912.19;5052063;28;20021;-73
2022/11/24 02:33:08;;;;;;;4.83;4.03;;;;;;;-4.52;93.05;101913.41;5053048;28;20060;-74
2022/11/24 02:35:33;;;;;;;4.78;4.28;;;;;;;-4.62;93.68;101918.00;5052053;28;20456;-73
2022/11/24 02:37:59;;;;;;;4.60;3.57;;;;;;;-4.61;93.81;101919.69;5053476;28;20032;-74
2022/11/24 02:40:28;;;;;;;5.07;3.80;;;;;;;-4.60;93.50;101923.16;5054752;28;20465;-73
2022/11/24 02:43:02;;;;;;;6.50;3.92;;;;;;;-4.63;93.69;101918.00;5054409;28;20021;-73
2022/11/24 02:45:30;;;;;;;4.65;3.80;;;;;;;-4.64;94.65;101908.50;5052098;28;20025;-72
2022/11/24 02:47:56;;;;;;;5.57;3.85;;;;;;;-4.62;94.53;101911.94;5051883;28;20146;-75
2022/11/24 02:50:23;;;;;;;5.47;3.30;;;;;;;-4.58;94.55;101916.16;5062295;28;20173;-74
2022/11/24 02:52:49;;;;;;;5.35;3.90;;;;;;;-4.54;94.32;101921.25;5071375;28;20044;-74
2022/11/24 02:55:14;;;;;;;5.40;3.97;;;;;;;-4.53;93.68;101929.91;5071591;28;20356;-72
2022/11/24 02:57:40;;;;;;;8.03;4.13;;;;;;;-4.49;93.47;101926.31;5071563;28;20372;-73
2022/11/24 03:00:06;;;;;;;5.30;3.83;;;;;;;-4.56;93.99;101914.38;5071325;28;20464;-73
2022/11/24 03:02:32;;;;;;;4.80;3.72;;;;;;;-4.43;93.61;101932.22;5053454;28;20094;-74
2022/11/24 03:04:57;;;;;;;5.50;3.93;;;;;;;-4.37;92.76;101942.47;5071673;28;20410;-74
2022/11/24 03:07:23;;;;;;;4.60;4.10;;;;;;;-4.48;91.85;101930.63;5071621;28;20028;-73
2022/11/24 03:10:14;;;;;;;5.35;3.85;;;;;;;-4.55;92.65;101936.88;5071742;28;20132;-73
2022/11/24 03:12:40;;;;;;;4.95;4.05;;;;;;;-4.65;91.87;101941.44;5071404;28;20036;-75
2022/11/24 03:15:05;;;;;;;5.27;3.80;;;;;;;-4.64;92.69;101952.69;5071729;28;20472;-74
2022/11/24 03:17:31;;;;;;;4.87;4.37;;;;;;;-4.73;92.80;101939.03;5071493;28;20070;-75
2022/11/24 03:19:58;;;;;;;7.90;4.63;;;;;;;-4.73;92.99;101948.56;5071352;28;20033;-72
2022/11/24 03:22:24;;;;;;;5.05;4.50;;;;;;;-4.75;93.36;101946.00;5071290;28;20064;-73
2022/11/24 03:24:50;;;;;;;6.20;5.13;;;;;;;-4.77;93.75;101952.13;5053338;28;20052;-73
2022/11/24 03:27:15;;;;;;;4.37;3.77;;;;;;;-4.85;93.97;101934.13;5071183;28;20062;-73
2022/11/24 03:29:41;;;;;;;8.23;4.67;;;;;;;-4.76;93.08;101954.69;5071605;28;20352;-74
2022/11/24 03:32:06;;;;;;;4.80;4.00;;;;;;;-4.93;92.87;101925.63;5071722;28;20089;-74
2022/11/24 03:34:32;;;;;;;6.00;5.03;;;;;;;-4.77;92.81;101963.38;5071890;28;20533;-73
2022/11/24 03:36:57;;;;;;;6.57;4.63;;;;;;;-4.82;93.08;101957.44;5074920;28;20472;-72
2022/11/24 03:39:22;;;;;;;5.80;4.37;;;;;;;-4.78;93.87;101961.69;5074778;28;20456;-72
2022/11/24 03:41:50;;;;;;;4.53;3.83;;;;;;;-4.80;93.64;101952.22;5074861;28;20062;-73
2022/11/24 03:44:16;;;;;;;6.10;4.63;;;;;;;-4.84;94.04;101951.44;5074806;28;20054;-72
2022/11/24 03:46:42;;;;;;;5.90;4.50;;;;;;;-4.88;93.85;101933.34;5074998;28;20130;-73
2022/11/24 03:49:08;;;;;;;5.57;4.93;;;;;;;-4.76;93.95;101949.50;5056774;28;20051;-75
2022/11/24 03:51:34;;;;;;;5.72;4.35;;;;;;;-4.84;93.51;101935.00;5074671;28;20032;-74
2022/11/24 03:54:00;;;;;;;5.27;4.37;;;;;;;-4.78;92.83;101961.69;5074391;28;20075;-73
2022/11/24 03:56:25;;;;;;;5.53;4.30;;;;;;;-4.81;93.21;101964.34;5074756;28;20056;-74
2022/11/24 03:58:51;;;;;;;7.53;4.50;;;;;;;-4.81;93.23;101972.16;5074889;28;20035;-74
2022/11/24 04:01:17;;;;;;;5.03;4.50;;;;;;;-4.89;93.74;101962.84;5056849;28;20032;-75
2022/11/24 04:03:42;;;;;;;5.20;3.90;;;;;;;-5.02;93.89;101972.63;5074662;28;20111;-74
2022/11/24 04:06:08;;;;;;;6.00;4.63;;;;;;;-5.11;93.66;101963.31;5074591;28;20021;-72
2022/11/24 04:08:34;;;;;;;7.63;4.60;;;;;;;-5.17;93.59;101952.19;5056662;28;20043;-73
2022/11/24 04:10:59;;;;;;;6.33;4.40;;;;;;;-5.19;93.57;101956.56;5074468;28;20025;-73
2022/11/24 04:13:27;;;;;;;6.33;5.07;;;;;;;-5.12;94.13;101968.53;5075607;28;20025;-72
2022/11/24 04:15:53;;;;;;;5.25;4.30;;;;;;;-5.06;94.16;101976.19;5075752;28;20495;-74
2022/11/24 04:18:19;;;;;;;4.95;4.40;;;;;;;-5.12;94.00;101950.34;5075287;28;20032;-73
2022/11/24 04:20:47;;;;;;;5.95;4.50;;;;;;;-4.86;94.31;101984.41;5074316;28;20116;-71
2022/11/24 04:23:13;;;;;;;6.05;3.92;;;;;;;-4.87;93.02;101972.28;5074386;28;20033;-73
2022/11/24 04:25:40;;;;;;;5.50;4.87;;;;;;;-4.89;93.57;101975.81;5074307;28;20069;-74
2022/11/24 04:28:05;;;;;;;9.10;4.88;;;;;;;-4.96;93.18;101972.47;5075655;28;20570;-73
2022/11/24 04:30:31;;;;;;;6.03;5.10;;;;;;;-5.31;93.91;101914.38;5074551;28;20029;-76
2022/11/24 04:32:56;;;;;;;6.07;3.97;;;;;;;-5.02;93.03;101973.47;5074348;28;20032;-73
2022/11/24 04:35:22;;;;;;;7.97;5.33;;;;;;;-5.12;93.97;101977.19;5074947;28;20028;-77
2022/11/24 04:37:48;;;;;;;5.53;4.30;;;;;;;-5.10;93.85;101969.34;5074031;28;20036;-74
2022/11/24 04:40:14;;;;;;;5.37;3.67;;;;;;;-5.18;94.34;101953.09;5056160;28;20020;-75
2022/11/24 04:42:40;;;;;;;7.40;4.80;;;;;;;-4.92;94.16;101979.31;5073394;28;20491;-71
2022/11/24 04:45:07;;;;;;;5.33;4.40;;;;;;;-4.96;92.93;101982.03;5073733;28;20033;-71
2022/11/24 04:47:32;;;;;;;6.57;4.72;;;;;;;-4.92;93.43;101996.66;5072896;28;20081;-77
2022/11/24 04:49:59;;;;;;;6.03;4.00;;;;;;;-4.95;93.29;101986.31;5073604;28;20040;-77
2022/11/24 04:52:25;;;;;;;6.32;4.38;;;;;;;-5.00;93.10;101981.25;5073485;28;20041;-74
2022/11/24 04:54:51;;;;;;;5.82;4.35;;;;;;;-4.93;93.16;101982.81;5055570;28;20029;-76
2022/11/24 04:57:19;;;;;;;7.68;5.43;;;;;;;-5.01;92.39;101993.38;5074352;28;20020;-76
2022/11/24 04:59:45;;;;;;;4.88;3.90;;;;;;;-5.30;93.33;101962.84;5056714;28;20071;-75
2022/11/24 05:02:11;;;;;;;4.80;4.00;;;;;;;-5.24;93.58;101982.63;5073481;28;20443;-74
2022/11/24 05:04:37;;;;;;;6.72;4.90;;;;;;;-5.25;93.41;101980.06;5073322;28;20025;-76
2022/11/24 05:07:02;;;;;;;5.27;3.70;;;;;;;-5.25;93.75;101978.31;5073450;28;20035;-74
2022/11/24 05:09:28;;;;;;;8.43;4.57;;;;;;;-5.22;93.41;101991.22;5081375;28;20039;-74
2022/11/24 05:11:55;;;;;;;6.20;3.88;;;;;;;-5.13;94.17;101995.41;5068676;28;20033;-73
2022/11/24 05:14:21;;;;;;;5.50;4.00;;;;;;;-5.19;93.37;101992.94;5060591;28;20054;-73
2022/11/24 05:16:47;;;;;;;7.23;4.77;;;;;;;-5.19;93.38;101996.38;5074874;28;20051;-76
2022/11/24 05:19:13;;;;;;;5.83;4.67;;;;;;;-5.35;93.02;102001.03;5074291;28;20024;-73
2022/11/24 05:21:41;;;;;;;6.47;4.82;;;;;;;-5.37;94.19;102008.00;5073084;28;20025;-75
2022/11/24 05:24:07;;;;;;;5.43;4.87;;;;;;;-5.34;94.48;102012.25;5073213;28;20036;-71
2022/11/24 05:26:34;;;;;;;9.27;4.47;;;;;;;-5.35;93.55;102005.38;5073079;28;20024;-73
2022/11/24 05:28:59;;;;;;;4.85;4.35;;;;;;;-5.38;92.84;101995.03;5073235;28;20062;-74
2022/11/24 05:31:25;;;;;;;5.80;4.30;;;;;;;-5.34;93.55;102012.25;5055402;28;20119;-74
2022/11/24 05:33:51;;;;;;;4.80;4.17;;;;;;;-5.30;93.64;102025.16;5072987;28;20035;-74
2022/11/24 05:39:00;;;;;;;5.65;4.32;;;;;;;-5.47;93.82;102027.25;5072956;28;20028;-75
2022/11/24 05:41:26;;;;;;;6.77;4.60;;;;;;;-5.43;94.21;102025.44;5072484;28;20519;-73
2022/11/24 05:43:51;;;;;;;6.63;5.20;;;;;;;-5.39;93.89;102024.50;5072386;28;20452;-74
2022/11/24 05:46:17;;;;;;;6.57;5.20;;;;;;;-5.34;93.23;102044.28;5072750;28;20044;-75
2022/11/24 05:48:42;;;;;;;9.20;5.53;;;;;;;-5.41;94.01;102037.50;5072324;28;20031;-74
2022/11/24 05:51:08;;;;;;;4.90;4.17;;;;;;;-5.36;94.27;102040.84;5072901;28;20050;-75
2022/11/24 05:53:34;;;;;;;8.17;5.53;;;;;;;-5.61;93.83;102005.88;5072567;28;20098;-74
2022/11/24 05:56:04;;;;;;;6.47;4.57;;;;;;;-5.34;93.70;102049.47;5060200;28;20036;-74
2022/11/24 05:58:30;;;;;;;6.82;4.40;;;;;;;-5.38;93.58;102050.41;5075211;28;20035;-74
2022/11/24 06:00:55;;;;;;;8.17;5.33;;;;;;;-5.38;93.24;102041.78;5076433;28;20036;-74
2022/11/24 06:03:24;;;;;;;6.33;4.70;;;;;;;-5.26;93.64;102051.06;5074926;28;20186;-74
2022/11/24 06:05:52;;;;;;;5.18;4.63;;;;;;;-5.24;92.61;102059.66;5055243;28;20035;-75
2022/11/24 06:08:20;;;;;;;7.80;5.03;;;;;;;-5.34;92.44;102059.84;5072435;28;20028;-75
2022/11/24 06:10:46;;;;;;;5.65;4.30;;;;;;;-5.43;93.33;102051.41;5054376;28;20025;-75
2022/11/24 06:13:40;;;;;;;6.30;4.55;;;;;;;-5.45;92.49;102063.56;5072312;28;20491;-75
2022/11/24 06:16:05;;;;;;;12.03;5.57;;;;;;;-5.41;93.11;102058.28;5071723;28;20380;-75
2022/11/24 06:18:31;;;;;;;9.73;5.50;;;;;;;-5.32;93.04;102063.28;5072229;28;20262;-74
2022/11/24 06:20:56;;;;;;;9.33;6.40;;;;;;;-5.31;92.54;102058.94;5071829;28;20108;-74
2022/11/24 06:23:22;;;;;;;6.07;4.93;;;;;;;-5.25;92.82;102063.16;5072480;28;20032;-74
2022/11/24 06:25:47;;;;;;;9.73;6.03;;;;;;;-5.18;92.78;102070.81;5071823;28;20189;-74
2022/11/24 06:28:13;;;;;;;7.20;4.93;;;;;;;-5.11;92.35;102066.34;5054666;28;20032;-75
2022/11/24 06:30:38;;;;;;;7.67;5.10;;;;;;;-5.31;92.59;102049.41;5072404;28;20040;-74
2022/11/24 06:33:04;;;;;;;12.03;6.13;;;;;;;-5.19;92.54;102068.25;5072338;28;20086;-74
2022/11/24 06:35:32;;;;;;;7.43;4.57;;;;;;;-5.14;92.06;102071.59;5072050;28;20070;-74
2022/11/24 06:38:01;;;;;;;9.27;5.75;;;;;;;-5.14;91.92;102079.41;5072276;28;20020;-74
2022/11/24 06:40:26;;;;;;;7.13;5.03;;;;;;;-5.15;92.18;102082.88;5072172;28;20200;-73
2022/11/24 06:43:01;;;;;;;10.38;7.82;;;;;;;-5.14;92.60;102090.63;5071493;28;20464;-76
2022/11/24 06:45:26;;;;;;;10.15;5.30;;;;;;;-5.20;91.82;102077.78;5072003;28;20058;-73
2022/11/24 06:47:53;;;;;;;8.93;6.07;;;;;;;-5.17;nan;102080.31;5072056;28;20115;-74
2022/11/24 06:50:22;;;;;;;10.85;6.05;;;;;;;-5.13;92.17;102084.56;5071380;28;20136;-74
2022/11/24 06:52:49;;;;;;;6.35;5.18;;;;;;;-5.08;91.59;102107.84;5071416;28;20036;-75
2022/11/24 06:55:15;;;;;;;8.43;6.40;;;;;;;-5.15;91.16;102101.91;5053753;28;20039;-74
2022/11/24 06:57:41;;;;;;;9.00;5.60;;;;;;;-5.11;92.01;102092.31;5053741;28;20033;-74
2022/11/24 07:00:10;;;;;;;7.70;5.17;;;;;;;-5.06;92.42;102106.06;5071749;28;20059;-74
2022/11/24 07:02:35;;;;;;;11.50;7.03;;;;;;;-5.09;91.73;102093.16;5071715;28;20029;-75
2022/11/24 07:05:01;;;;;;;10.73;5.90;;;;;;;-5.05;91.48;102097.38;5053907;28;20383;-74
2022/11/24 07:07:29;;;;;;;11.40;7.10;;;;;;;-4.97;91.77;102105.00;5053819;28;20029;-73
2022/11/24 07:09:57;;;;;;;7.55;5.47;;;;;;;-4.95;91.75;102093.69;5072405;28;20029;-73
2022/11/24 07:12:25;;;;;;;9.73;7.25;;;;;;;-4.99;90.63;102102.44;5075378;28;20032;-73
2022/11/24 07:14:53;;;;;;;11.02;6.00;;;;;;;-5.02;90.60;102102.50;5075386;28;20511;-74
2022/11/24 07:17:19;;;;;;;11.18;6.53;;;;;;;-5.00;91.26;102104.19;5075664;28;20471;-75
2022/11/24 07:19:44;;;;;;;9.43;6.03;;;;;;;-5.03;90.80;102100.81;5057380;28;20118;-73
2022/11/24 07:22:10;;;;;;;12.77;6.90;;;;;;;-5.12;90.41;102096.66;5074623;28;20056;-73
2022/11/24 07:24:35;;;;;;;11.87;7.83;;;;;;;-5.09;90.93;102106.13;5075187;28;20122;-74
2022/11/24 07:27:01;;;;;;;11.03;6.47;;;;;;;-5.34;91.00;102085.81;5075725;28;20031;-73
2022/11/24 07:29:26;;;;;;;12.00;7.70;;;;;;;-5.13;90.79;102120.06;5075343;28;20024;-75
2022/11/24 07:31:52;;;;;;;21.03;9.23;;;;;;;-5.10;90.75;102125.19;5074727;28;20581;-73
2022/11/24 07:34:17;;;;;;;14.10;8.43;;;;;;;-5.16;91.58;102114.94;5073936;28;20050;-74
2022/11/24 07:36:43;;;;;;;12.80;7.17;;;;;;;-5.04;91.69;102119.88;5073612;28;20025;-73
2022/11/24 07:39:09;;;;;;;14.45;7.57;;;;;;;-4.93;90.50;102117.06;5055869;28;20025;-74
2022/11/24 07:41:35;;;;;;;13.17;8.10;;;;;;;-4.97;89.66;102121.47;5075035;28;20086;-73
2022/11/24 07:44:00;;;;;;;10.87;6.77;;;;;;;-4.95;90.18;102122.28;5075058;28;20041;-74
2022/11/24 07:46:26;;;;;;;13.67;8.23;;;;;;;-4.96;90.20;102112.78;5074847;28;20037;-73
2022/11/24 07:48:51;;;;;;;11.90;7.63;;;;;;;-5.04;90.17;102109.50;5075080;28;20391;-74
2022/11/24 07:51:18;;;;;;;9.20;6.63;;;;;;;-5.05;89.63;102118.16;5056943;28;20135;-75
2022/11/24 07:53:44;;;;;;;13.40;8.20;;;;;;;-5.17;90.17;102118.41;5074482;28;20545;-75
2022/11/24 07:56:11;;;;;;;22.52;10.15;;;;;;;-5.09;90.71;102126.91;5073681;28;20025;-79
2022/11/24 07:58:36;;;;;;;11.18;7.95;;;;;;;-5.05;90.48;102131.16;5075734;28;20032;-79
2022/11/24 08:01:13;;;;;;;12.45;7.80;;;;;;;-5.07;90.82;102125.13;5074888;28;20032;-75
2022/11/24 08:03:39;;;;;;;12.40;7.57;;;;;;;-5.00;90.48;102137.97;5074533;28;20024;-79
2022/11/24 08:06:04;;;;;;;13.93;7.93;;;;;;;-4.88;90.66;102136.03;5074714;28;20029;-78
2022/11/24 08:08:33;;;;;;;12.67;8.60;;;;;;;-4.82;89.94;102144.56;5074193;28;20418;-74
2022/11/24 08:11:11;;;;;;;13.23;7.85;;;;;;;-4.74;89.94;102134.84;5074544;28;20064;-72
2022/11/24 08:13:37;;;;;;;13.95;8.77;;;;;;;-4.73;89.37;102151.28;5074264;28;20098;-71
2022/11/24 08:16:06;;;;;;;10.47;7.07;;;;;;;-4.79;89.02;102141.88;5074366;28;20127;-71
2022/11/24 08:18:33;;;;;;;13.05;7.55;;;;;;;-4.69;89.43;102146.00;5074113;28;20549;-71
2022/11/24 08:20:59;;;;;;;11.48;7.57;;;;;;;-4.76;89.15;102131.44;5073356;28;20040;-73
2022/11/24 08:23:30;;;;;;;9.57;7.07;;;;;;;-4.75;88.22;102140.09;5039187;28;20039;-69
2022/11/24 08:26:03;;;;;;;15.23;7.32;;;;;;;-4.78;87.98;102138.41;5074014;28;20020;-71
2022/11/24 08:28:28;;;;;;;12.82;7.82;;;;;;;-4.76;88.38;102134.03;5074419;28;20029;-71
2022/11/24 08:31:04;;;;;;;18.03;9.00;;;;;;;-4.84;88.03;102146.34;5074453;28;20027;-73
2022/11/24 08:33:30;;;;;;;10.77;7.43;;;;;;;-4.87;88.63;102148.13;5074236;28;20109;-73
2022/11/24 08:36:02;;;;;;;12.47;8.00;;;;;;;-4.83;88.82;102142.84;5074503;28;20062;-70
2022/11/24 08:38:27;;;;;;;12.77;7.70;;;;;;;-4.78;89.18;102142.75;5079226;28;20028;-73
2022/11/24 08:40:53;;;;;;;17.30;9.07;;;;;;;-4.68;89.02;102146.84;5075337;28;20047;-72
2022/11/24 08:43:18;;;;;;;12.00;7.23;;;;;;;-4.64;88.26;102150.25;5073953;28;20020;-70
2022/11/24 08:45:44;;;;;;;7.87;5.53;;;;;;;-4.56;88.22;102151.81;5073589;28;20024;-71
2022/11/24 08:48:09;;;;;;;12.73;6.77;;;;;;;-4.50;87.18;102149.09;5073566;28;20024;-72
2022/11/24 08:50:36;;;;;;;12.37;6.67;;;;;;;-4.56;87.29;102146.63;5073009;28;20128;-71
2022/11/24 08:53:02;;;;;;;8.23;6.57;;;;;;;-4.60;87.43;102157.97;5073257;28;20038;-71
2022/11/24 08:55:27;;;;;;;10.00;6.67;;;;;;;-4.57;87.48;102157.91;5073448;28;20032;-72
2022/11/24 08:57:53;;;;;;;9.73;6.50;;;;;;;-4.50;86.96;102163.81;5055601;28;20016;-72
2022/11/24 09:00:21;;;;;;;9.67;6.27;;;;;;;-4.42;87.03;102164.50;5073308;28;20535;-76
2022/11/24 09:02:56;;;;;;;10.20;7.00;;;;;;;-4.40;87.02;102165.34;5073535;28;20033;-72
2022/11/24 09:05:22;;;;;;;10.32;6.63;;;;;;;-4.38;86.61;102174.81;5073157;28;20093;-72
2022/11/24 09:07:48;;;;;;;13.63;7.07;;;;;;;-4.36;86.51;102166.97;5073538;28;20028;-75
2022/11/24 09:10:14;;;;;;;9.57;6.90;;;;;;;-4.54;86.10;102150.03;5073359;28;20405;-72
2022/11/24 09:12:39;;;;;;;14.43;6.77;;;;;;;-4.46;85.78;102173.28;5073289;28;20032;-71
2022/11/24 09:15:05;;;;;;;13.07;6.80;;;;;;;-4.46;86.31;102170.66;5055154;28;20028;-71
2022/11/24 09:17:35;;;;;;;11.13;6.50;;;;;;;-4.50;86.70;102177.69;5073634;28;20094;-70
2022/11/24 09:20:01;;;;;;;11.33;6.87;;;;;;;-4.42;86.60;102177.50;5073394;28;20024;-72
2022/11/24 09:22:29;;;;;;;9.82;8.15;;;;;;;-4.52;86.17;102171.66;5073554;28;20065;-70
2022/11/24 09:24:55;;;;;;;10.50;7.55;;;;;;;-4.47;87.06;102179.38;5073019;28;20036;-72
2022/11/24 09:27:21;;;;;;;10.13;6.70;;;;;;;-4.48;86.63;102177.66;5055315;28;20364;-72
2022/11/24 09:29:46;;;;;;;11.23;6.67;;;;;;;-4.54;86.53;102182.97;5072606;28;20021;-72
2022/11/24 09:32:12;;;;;;;13.03;7.53;;;;;;;-4.54;87.43;102177.78;5072914;28;20036;-71
2022/11/24 09:34:37;;;;;;;12.43;7.03;;;;;;;-4.56;87.56;102175.22;5072624;28;20039;-72
2022/11/24 09:37:03;;;;;;;11.13;7.03;;;;;;;-4.49;87.74;102188.94;5072807;28;20017;-72
2022/11/24 09:39:28;;;;;;;14.37;6.80;;;;;;;-4.39;87.91;102187.84;5072661;28;20060;-71
2022/11/24 09:42:22;;;;;;;11.50;6.50;;;;;;;-4.27;87.96;102187.59;5074666;28;20427;-73
2022/11/24 09:45:05;;;;;;;9.45;6.82;;;;;;;-4.32;87.43;102183.41;5074645;28;20536;-70
2022/11/24 09:47:52;;;;;;;8.90;6.15;;;;;;;-4.36;86.67;102188.63;5072993;28;20415;-71
2022/11/24 09:50:23;;;;;;;8.73;6.00;;;;;;;-4.32;87.54;102183.41;5072432;28;20143;-73
2022/11/24 09:53:17;;;;;;;11.68;7.70;;;;;;;-4.24;87.93;102190.13;5072516;28;20040;-72
2022/11/24 09:55:46;;;;;;;9.63;6.13;;;;;;;-4.11;87.45;102188.97;5072433;28;20024;-74
2022/11/24 09:58:23;;;;;;;12.73;6.28;;;;;;;-4.06;85.99;102176.69;5072440;28;20040;-72
2022/11/24 10:00:52;;;;;;;8.57;5.38;;;;;;;-4.01;85.80;102186.16;5072280;28;20035;-72
2022/11/24 10:03:42;;;;;;;11.85;6.22;;;;;;;-4.06;86.46;102186.25;5072432;28;20111;-72
2022/11/24 10:06:45;;;;;;;8.38;5.82;;;;;;;-4.22;86.41;102171.88;5072849;28;20119;-72
2022/11/24 10:09:31;;;;;;;10.18;6.68;;;;;;;-4.43;86.30;102187.06;5072713;28;20035;-74
2022/11/24 10:12:18;;;;;;;8.20;5.65;;;;;;;-4.49;87.33;102189.78;5074411;28;20021;-72
2022/11/24 10:15:15;;;;;;;10.23;5.60;;;;;;;-4.40;87.20;102179.19;5075740;28;20028;-73
2022/11/24 10:17:59;;;;;;;11.77;6.25;;;;;;;-4.37;87.06;102173.06;5079503;28;20044;-76
2022/11/24 10:20:45;;;;;;;8.80;5.88;;;;;;;-4.45;86.23;102167.19;5058123;28;20036;-76
2022/11/24 10:23:22;;;;;;;8.73;6.47;;;;;;;-4.44;86.96;102174.09;5077316;28;20472;-77
2022/11/24 10:25:51;;;;;;;13.88;7.10;;;;;;;-4.27;86.32;102173.75;5073960;28;20130;-79
2022/11/24 10:28:16;;;;;;;14.18;8.32;;;;;;;-4.40;86.49;102162.72;5073082;28;20056;-77
2022/11/24 10:30:42;;;;;;;14.00;8.07;;;;;;;-4.57;86.38;102151.84;5072532;28;20020;-76
2022/11/24 10:33:19;;;;;;;12.40;8.52;;;;;;;-4.49;87.27;102179.41;5054469;28;20060;-77
2022/11/24 10:35:51;;;;;;;10.10;7.45;;;;;;;-4.77;86.93;102124.53;5072208;28;20032;-76
2022/11/24 10:38:19;;;;;;;11.25;8.15;;;;;;;-4.45;86.93;102182.78;5072413;28;20059;-75
2022/11/24 10:41:04;;;;;;;9.13;6.10;;;;;;;-4.55;86.83;102178.66;5054394;28;20028;-75
2022/11/24 10:43:29;;;;;;;9.00;5.88;;;;;;;-4.69;86.47;102177.19;5072500;28;20467;-76
2022/11/24 10:46:13;;;;;;;6.57;5.50;;;;;;;-4.74;87.56;102179.03;5071904;28;20094;-75
2022/11/24 10:49:01;;;;;;;8.93;6.32;;;;;;;-4.61;87.02;102181.41;5073258;28;20028;-74
2022/11/24 10:52:12;;;;;;;9.80;6.95;;;;;;;-4.69;87.77;102185.00;5073863;28;20117;-76
2022/11/24 10:54:54;;;;;;;11.48;6.10;;;;;;;-4.84;88.09;102182.72;5075226;28;20033;-73
2022/11/24 10:57:46;;;;;;;8.95;6.30;;;;;;;-4.96;87.91;102162.16;5077381;28;20132;-77
2022/11/24 11:00:17;;;;;;;8.35;6.03;;;;;;;-4.81;88.07;102185.25;5071719;28;20035;-76
2022/11/24 11:02:44;;;;;;;10.95;7.00;;;;;;;-4.72;87.73;102187.66;5076819;28;20033;-78
2022/11/24 11:05:31;;;;;;;12.75;6.22;;;;;;;-4.68;88.28;102188.44;5058121;28;20036;-78
2022/11/24 11:08:18;;;;;;;11.00;6.75;;;;;;;-4.70;87.23;102179.81;5072184;28;20410;-76
2022/11/24 11:10:45;;;;;;;11.70;6.75;;;;;;;-4.73;87.50;102172.94;5053955;28;20043;-75
2022/11/24 11:13:30;;;;;;;8.85;6.95;;;;;;;-5.01;87.12;102122.41;5071575;28;20037;-76
2022/11/24 11:15:57;;;;;;;10.02;7.55;;;;;;;-4.80;88.27;102192.16;5071602;28;20024;-75
2022/11/24 11:18:30;;;;;;;13.30;9.05;;;;;;;-4.94;87.88;102177.69;5072271;28;20032;-76
2022/11/24 11:21:02;;;;;;;13.38;8.65;;;;;;;-4.88;89.18;102181.06;5071930;28;20048;-75
2022/11/24 11:23:31;;;;;;;13.40;8.10;;;;;;;-4.84;88.34;102177.50;5071611;28;20055;-76
2022/11/24 11:26:32;;;;;;;12.93;8.43;;;;;;;-4.83;88.46;102187.03;5071931;28;20418;-72
2022/11/24 11:29:01;;;;;;;14.88;9.82;;;;;;;-4.80;88.49;102179.16;5072097;28;20032;-72
2022/11/24 11:31:27;;;;;;;;;;;;;;;-4.70;87.81;102193.69;5054386;28;20032;-74
2022/11/24 11:34:13;;;;;;;13.60;8.10;;;;;;;-4.79;87.77;102188.66;5053445;28;20271;-76
2022/11/24 11:36:48;;;;;;;13.77;7.93;;;;;;;-4.84;88.13;102190.50;5071356;28;20126;-76